createdAt,value
2023-04-30T00:01:51.227Z,16.53
2023-04-30T00:05:52.471Z,13.77
2023-04-30T00:09:53.836Z,15.57
2023-04-30T00:13:56.412Z,15.70
2023-04-30T00:17:57.621Z,17.50
2023-04-30T00:22:00.653Z,16.70
2023-04-30T00:26:02.034Z,15.53
2023-04-30T00:30:03.754Z,15.33
2023-04-30T00:34:05.129Z,16.17
2023-04-30T00:38:06.285Z,16.17
2023-04-30T00:42:12.554Z,16.57
2023-04-30T00:46:13.782Z,17.03
2023-04-30T00:50:15.570Z,18.87
2023-04-30T00:54:17.529Z,16.33
2023-04-30T00:58:18.788Z,18.87
2023-04-30T01:02:20.213Z,19.10
2023-04-30T01:06:21.624Z,17.93
2023-04-30T01:10:26.557Z,18.43
2023-04-30T01:14:31.533Z,19.17
2023-04-30T01:18:45.367Z,19.27
2023-04-30T01:23:11.927Z,18.50
2023-04-30T01:27:43.978Z,19.70
2023-04-30T01:31:45.529Z,19.13
2023-04-30T01:35:55.888Z,19.10
2023-04-30T01:40:11.496Z,18.97
2023-04-30T01:44:16.433Z,19.57
2023-04-30T01:48:24.467Z,19.63
2023-04-30T01:52:31.969Z,21.17
2023-04-30T01:56:40.614Z,20.80
2023-04-30T02:00:42.070Z,19.90
2023-04-30T02:04:43.397Z,21.90
2023-04-30T02:08:44.591Z,21.97
2023-04-30T02:12:45.931Z,21.80
2023-04-30T02:16:47.096Z,20.27
2023-04-30T02:20:48.245Z,21.87
2023-04-30T02:24:49.592Z,22.07
2023-04-30T02:28:50.767Z,23.27
2023-04-30T02:32:51.844Z,20.93
2023-04-30T02:36:53.049Z,25.03
2023-04-30T02:40:54.223Z,23.60
2023-04-30T02:44:55.374Z,25.00
2023-04-30T02:48:56.846Z,23.20
2023-04-30T02:52:58.113Z,24.80
2023-04-30T02:56:59.251Z,22.50
2023-04-30T03:01:00.431Z,22.93
2023-04-30T03:05:02.282Z,20.83
2023-04-30T03:09:03.455Z,21.10
2023-04-30T03:13:04.614Z,20.60
2023-04-30T03:17:06.285Z,20.90
2023-04-30T03:21:09.889Z,21.27
2023-04-30T03:25:11.149Z,22.67
2023-04-30T03:29:12.539Z,23.10
2023-04-30T03:33:13.749Z,21.00
2023-04-30T03:37:14.969Z,20.93
2023-04-30T03:41:16.153Z,20.30
2023-04-30T03:45:18.216Z,22.03
2023-04-30T03:49:19.471Z,21.77
2023-04-30T03:53:20.666Z,20.20
2023-04-30T03:57:21.943Z,19.70
2023-04-30T04:01:23.312Z,19.00
2023-04-30T04:05:24.861Z,19.90
2023-04-30T04:09:26.533Z,21.10
2023-04-30T04:13:27.700Z,18.90
2023-04-30T04:17:28.875Z,21.73
2023-04-30T04:21:30.951Z,22.27
2023-04-30T04:25:32.730Z,21.07
2023-04-30T04:29:33.911Z,20.07
2023-04-30T04:33:36.356Z,18.77
2023-04-30T04:37:37.597Z,20.70
2023-04-30T04:41:38.779Z,19.10
2023-04-30T04:45:40.436Z,19.73
2023-04-30T04:51:10.486Z,20.83
2023-04-30T04:55:12.193Z,21.27
2023-04-30T04:59:13.527Z,21.30
2023-04-30T05:03:14.855Z,21.60
2023-04-30T05:07:17.269Z,20.60
2023-04-30T05:11:18.441Z,21.63
2023-04-30T05:15:19.914Z,18.80
2023-04-30T05:19:21.476Z,22.53
2023-04-30T05:23:22.656Z,20.50
2023-04-30T05:27:23.853Z,20.47
2023-04-30T05:31:25.033Z,21.40
2023-04-30T05:35:26.404Z,19.97
2023-04-30T05:39:27.565Z,20.90
2023-04-30T05:43:28.728Z,18.37
2023-04-30T05:47:30.535Z,17.80
2023-04-30T05:51:32.016Z,18.60
2023-04-30T05:55:33.878Z,18.90
2023-04-30T05:59:35.069Z,19.43
2023-04-30T06:03:37.727Z,18.10
2023-04-30T06:07:38.896Z,17.40
2023-04-30T06:11:42.374Z,17.83
2023-04-30T06:15:43.040Z,15.93
2023-04-30T06:19:44.210Z,15.70
2023-04-30T06:23:45.368Z,16.23
2023-04-30T06:27:46.528Z,15.03
2023-04-30T06:31:47.828Z,16.10
2023-04-30T06:35:51.047Z,14.80
2023-04-30T06:39:52.239Z,14.97
2023-04-30T06:43:53.489Z,13.83
2023-04-30T06:47:55.168Z,11.97
2023-04-30T06:51:57.932Z,13.40
2023-04-30T06:56:00.001Z,11.77
2023-04-30T07:00:01.578Z,12.00
2023-04-30T07:04:02.832Z,12.10
2023-04-30T07:08:06.182Z,11.20
2023-04-30T07:12:07.478Z,9.33
2023-04-30T07:16:10.087Z,9.07
2023-04-30T07:20:14.026Z,8.93
2023-04-30T07:24:15.212Z,8.47
2023-04-30T07:28:16.402Z,7.80
2023-04-30T07:32:17.686Z,9.07
2023-04-30T07:36:18.851Z,7.47
2023-04-30T07:40:32.686Z,7.80
2023-04-30T07:44:23.175Z,6.77
2023-04-30T07:48:24.346Z,5.73
2023-04-30T07:52:25.522Z,5.50
2023-04-30T07:56:26.910Z,5.10
2023-04-30T08:00:28.866Z,5.40
2023-04-30T08:04:30.107Z,4.93
2023-04-30T08:08:31.319Z,4.27
2023-04-30T08:12:37.053Z,3.30
2023-04-30T08:16:38.224Z,4.13
2023-04-30T08:20:39.359Z,3.50
2023-04-30T08:24:40.616Z,3.20
2023-04-30T08:28:41.760Z,2.73
2023-04-30T08:32:42.962Z,3.30
2023-04-30T08:36:44.226Z,3.20
2023-04-30T08:40:51.693Z,2.63
2023-04-30T08:44:52.045Z,2.37
2023-04-30T08:48:53.622Z,3.07
2023-04-30T08:52:54.875Z,2.10
2023-04-30T08:56:56.437Z,2.30
2023-04-30T09:00:59.009Z,2.10
2023-04-30T09:05:00.188Z,2.57
2023-04-30T09:09:10.824Z,2.20
2023-04-30T09:13:13.690Z,2.47
2023-04-30T09:17:18.672Z,2.30
2023-04-30T09:21:34.456Z,2.17
2023-04-30T09:25:40.733Z,2.17
2023-04-30T09:29:41.913Z,2.13
2023-04-30T09:33:46.711Z,2.63
2023-04-30T09:37:47.844Z,2.20
2023-04-30T09:41:50.958Z,1.90
2023-04-30T09:45:52.205Z,2.03
2023-04-30T09:49:53.565Z,1.97
2023-04-30T09:53:58.393Z,2.10
2023-04-30T09:57:59.848Z,2.27
2023-04-30T10:02:03.078Z,1.90
2023-04-30T10:06:05.468Z,1.70
2023-04-30T10:10:10.373Z,2.17
2023-04-30T10:14:12.835Z,1.93
2023-04-30T10:18:17.809Z,2.00
2023-04-30T10:22:19.367Z,1.80
2023-04-30T10:26:21.991Z,1.97
2023-04-30T10:30:23.477Z,1.77
2023-04-30T10:34:37.771Z,1.80
2023-04-30T10:38:40.163Z,1.63
2023-04-30T10:42:49.553Z,1.47
2023-04-30T10:46:59.019Z,1.47
2023-04-30T10:51:00.289Z,2.10
2023-04-30T10:55:06.884Z,1.70
2023-04-30T10:59:08.261Z,1.53
2023-04-30T11:03:09.468Z,2.00
2023-04-30T11:07:10.922Z,1.70
2023-04-30T11:11:17.424Z,1.70
2023-04-30T11:15:21.934Z,2.13
2023-04-30T11:19:24.401Z,1.90
2023-04-30T11:23:38.523Z,1.60
2023-04-30T11:27:33.582Z,1.70
2023-04-30T11:31:34.882Z,1.40
2023-04-30T11:35:36.097Z,1.70
2023-04-30T11:39:38.883Z,5.33
2023-04-30T11:43:40.044Z,1.70
2023-04-30T11:47:46.720Z,1.60
2023-04-30T11:51:49.908Z,1.27
2023-04-30T11:55:55.019Z,1.40
2023-04-30T11:59:58.049Z,1.40
2023-04-30T12:03:59.863Z,1.80
2023-04-30T12:08:05.707Z,1.27
2023-04-30T12:12:06.862Z,1.10
2023-04-30T12:16:08.477Z,1.60
2023-04-30T12:20:12.168Z,1.23
2023-04-30T12:24:16.377Z,1.73
2023-04-30T12:28:17.645Z,1.20
2023-04-30T12:32:18.989Z,1.27
2023-04-30T12:36:20.172Z,1.13
2023-04-30T12:40:25.240Z,1.27
2023-04-30T12:44:28.594Z,1.20
2023-04-30T12:48:29.762Z,1.40
2023-04-30T12:52:33.047Z,1.30
2023-04-30T12:56:34.719Z,0.80
2023-04-30T13:00:50.778Z,8.03
2023-04-30T13:04:53.053Z,0.90
2023-04-30T13:08:58.399Z,0.90
2023-04-30T13:12:57.821Z,0.90
2023-04-30T13:16:59.366Z,0.70
2023-04-30T13:21:00.540Z,0.90
2023-04-30T13:25:02.601Z,1.07
2023-04-30T13:29:03.769Z,0.90
2023-04-30T13:33:04.984Z,1.17
2023-04-30T13:37:06.256Z,0.93
2023-04-30T13:41:07.547Z,0.77
2023-04-30T13:45:09.242Z,1.00
2023-04-30T13:49:10.430Z,1.10
2023-04-30T13:53:11.563Z,1.40
2023-04-30T13:57:12.818Z,0.93
2023-04-30T14:01:14.106Z,0.90
2023-04-30T14:05:15.664Z,0.83
2023-04-30T14:09:17.438Z,0.87
2023-04-30T14:13:18.993Z,1.20
2023-04-30T14:17:20.647Z,0.70
2023-04-30T14:21:21.934Z,1.13
2023-04-30T14:25:23.474Z,1.20
2023-04-30T14:29:24.665Z,1.50
2023-04-30T14:33:26.142Z,1.40
2023-04-30T14:37:27.291Z,1.80
2023-04-30T14:41:28.358Z,0.70
2023-04-30T14:45:29.969Z,1.47
2023-04-30T14:49:31.486Z,1.80
2023-04-30T14:53:32.926Z,1.60
2023-04-30T14:57:34.452Z,2.30
2023-04-30T15:01:35.655Z,1.50
2023-04-30T15:05:37.228Z,1.90
2023-04-30T15:09:38.574Z,1.00
2023-04-30T15:13:39.845Z,0.90
2023-04-30T15:17:40.996Z,0.80
2023-04-30T15:21:42.774Z,0.90
2023-04-30T15:25:44.044Z,1.03
2023-04-30T15:29:45.907Z,0.90
2023-04-30T15:33:47.117Z,1.00
2023-04-30T15:37:48.284Z,0.93
2023-04-30T15:41:49.448Z,0.90
2023-04-30T15:45:50.601Z,1.33
2023-04-30T15:49:51.759Z,0.90
2023-04-30T15:53:53.298Z,1.00
2023-04-30T15:57:54.552Z,1.60
2023-04-30T16:01:55.760Z,1.60
2023-04-30T16:05:57.226Z,0.90
2023-04-30T16:09:59.346Z,1.07
2023-04-30T16:14:01.295Z,1.30
2023-04-30T16:18:02.709Z,0.93
2023-04-30T16:22:04.179Z,1.10
2023-04-30T16:26:05.636Z,1.50
2023-04-30T16:30:08.435Z,1.40
2023-04-30T16:34:12.740Z,2.00
2023-04-30T16:38:14.027Z,2.10
2023-04-30T16:42:15.326Z,1.53
2023-04-30T16:46:16.647Z,2.00
2023-04-30T16:50:17.860Z,1.40
2023-04-30T16:54:19.253Z,1.80
2023-04-30T16:58:20.592Z,1.40
2023-04-30T17:02:22.118Z,1.90
2023-04-30T17:06:23.481Z,1.50
2023-04-30T17:10:25.883Z,1.53
2023-04-30T17:14:28.002Z,1.80
2023-04-30T17:18:29.304Z,1.50
2023-04-30T17:22:30.911Z,1.80
2023-04-30T17:26:32.312Z,5.07
2023-04-30T17:30:33.728Z,1.13
2023-04-30T17:34:35.246Z,15.57
2023-04-30T17:38:36.661Z,4.10
2023-04-30T17:42:38.668Z,2.57
2023-04-30T17:46:40.711Z,1.90
2023-04-30T17:50:42.062Z,1.60
2023-04-30T17:54:43.362Z,3.30
2023-04-30T17:58:45.282Z,1.53
2023-04-30T18:02:46.802Z,1.67
2023-04-30T18:06:48.419Z,1.90
2023-04-30T18:10:49.836Z,1.60
2023-04-30T18:14:51.144Z,3.50
2023-04-30T18:18:52.445Z,2.53
2023-04-30T18:22:53.957Z,4.00
2023-04-30T18:26:55.449Z,4.60
2023-04-30T18:30:56.907Z,4.47
2023-04-30T18:34:58.587Z,4.00
2023-04-30T18:38:59.914Z,6.03
2023-04-30T18:43:01.311Z,5.13
2023-04-30T18:47:04.188Z,3.40
2023-04-30T18:51:05.690Z,4.47
2023-04-30T18:55:08.244Z,4.33
2023-04-30T18:59:10.107Z,17.40
2023-04-30T19:03:11.678Z,10.40
2023-04-30T19:07:13.724Z,9.37
2023-04-30T19:11:15.791Z,7.60
2023-04-30T19:15:18.008Z,6.83
2023-04-30T19:19:19.336Z,9.07
2023-04-30T19:23:20.762Z,14.53
2023-04-30T19:27:22.200Z,19.20
2023-04-30T19:31:23.815Z,12.30
2023-04-30T19:35:25.351Z,7.20
2023-04-30T19:39:33.952Z,3.60
2023-04-30T19:43:35.653Z,3.20
2023-04-30T19:47:37.530Z,4.60
2023-04-30T19:51:39.151Z,3.47
2023-04-30T19:55:40.811Z,2.80
2023-04-30T19:59:42.894Z,3.90
2023-04-30T20:03:44.397Z,3.03
2023-04-30T20:07:45.975Z,4.80
2023-04-30T20:11:49.053Z,7.80
2023-04-30T20:15:50.988Z,6.63
2023-04-30T20:19:52.127Z,2.87
2023-04-30T20:23:53.505Z,5.90
2023-04-30T20:27:55.371Z,5.20
2023-04-30T20:31:57.618Z,3.53
2023-04-30T20:35:59.144Z,7.10
2023-04-30T20:40:00.806Z,3.00
2023-04-30T20:44:02.133Z,5.47
2023-04-30T20:48:03.390Z,4.97
2023-04-30T20:52:05.051Z,4.00
2023-04-30T20:56:06.282Z,3.77
2023-04-30T21:00:09.036Z,5.40
2023-04-30T21:04:10.572Z,5.97
2023-04-30T21:08:11.745Z,3.63
2023-04-30T21:12:12.904Z,3.40
2023-04-30T21:16:14.260Z,2.53
2023-04-30T21:20:15.498Z,3.33
2023-04-30T21:24:16.662Z,3.10
2023-04-30T21:28:17.831Z,2.80
2023-04-30T21:32:19.109Z,3.20
2023-04-30T21:36:21.312Z,3.37
2023-04-30T21:40:22.455Z,2.97
2023-04-30T21:44:24.237Z,3.33
2023-04-30T21:48:25.827Z,3.03
2023-04-30T21:52:27.177Z,3.10
2023-04-30T21:56:28.503Z,2.73
2023-04-30T22:00:29.699Z,2.53
2023-04-30T22:04:31.153Z,3.00
2023-04-30T22:08:32.686Z,3.50
2023-04-30T22:12:34.430Z,3.30
2023-04-30T22:16:35.623Z,3.40
2023-04-30T22:20:36.763Z,2.80
2023-04-30T22:24:37.972Z,2.80
2023-04-30T22:28:39.164Z,3.20
2023-04-30T22:32:40.406Z,2.70
2023-04-30T22:36:42.829Z,2.70
2023-04-30T22:40:44.608Z,2.73
2023-04-30T22:44:46.015Z,2.47
2023-04-30T22:48:47.476Z,2.83
2023-04-30T22:52:49.188Z,2.40
2023-04-30T22:56:50.587Z,2.07
2023-04-30T23:00:51.951Z,2.30
2023-04-30T23:04:53.370Z,2.70
2023-04-30T23:08:54.888Z,3.17
2023-04-30T23:12:58.124Z,2.90
2023-04-30T23:17:00.119Z,2.80
2023-04-30T23:21:01.567Z,3.07
2023-04-30T23:25:03.119Z,3.20
2023-04-30T23:29:04.686Z,3.13
2023-04-30T23:33:06.077Z,3.40
2023-04-30T23:37:08.428Z,3.40
2023-04-30T23:41:09.741Z,3.90
2023-04-30T23:45:11.177Z,3.73
2023-04-30T23:49:12.424Z,3.53
2023-04-30T23:53:15.589Z,3.23
2023-04-30T23:57:17.043Z,2.80
